sensor_id;sensor_type;location;lat;lon;timestamp;pressure;altitude;pressure_sealevel;temperature;humidity
20942;BME280;10630;53.734;10.282;2022-11-20T00:02:08;100771.56;;;8.50;nan
20942;BME280;10630;53.734;10.282;2022-11-20T00:04:41;100777.59;;;8.42;nan
20942;BME280;10630;53.734;10.282;2022-11-20T00:07:11;100779.78;;;7.45;nan
20942;BME280;10630;53.734;10.282;2022-11-20T00:09:47;100772.63;;;8.11;nan
20942;BME280;10630;53.734;10.282;2022-11-20T00:12:16;100772.34;;;7.86;nan
20942;BME280;10630;53.734;10.282;2022-11-20T00:14:49;100776.25;;;8.10;nan
20942;BME280;10630;53.734;10.282;2022-11-20T00:17:19;100782.75;;;7.98;nan
20942;BME280;10630;53.734;10.282;2022-11-20T00:19:47;100782.56;;;7.53;nan
20942;BME280;10630;53.734;10.282;2022-11-20T00:22:16;100782.69;;;6.94;nan
20942;BME280;10630;53.734;10.282;2022-11-20T00:24:46;100774.28;;;7.56;nan
20942;BME280;10630;53.734;10.282;2022-11-20T00:27:15;100780.78;;;7.72;nan
20942;BME280;10630;53.734;10.282;2022-11-20T00:29:45;100779.13;;;7.99;nan
20942;BME280;10630;53.734;10.282;2022-11-20T00:32:14;100776.75;;;8.23;nan
20942;BME280;10630;53.734;10.282;2022-11-20T00:34:44;100772.75;;;7.91;nan
20942;BME280;10630;53.734;10.282;2022-11-20T00:37:16;100775.81;;;8.33;nan
20942;BME280;10630;53.734;10.282;2022-11-20T00:39:46;100771.59;;;8.40;nan
20942;BME280;10630;53.734;10.282;2022-11-20T00:42:13;100768.06;;;8.49;nan
20942;BME280;10630;53.734;10.282;2022-11-20T00:44:40;100769.72;;;8.50;nan
20942;BME280;10630;53.734;10.282;2022-11-20T00:47:08;100768.81;;;8.60;nan
20942;BME280;10630;53.734;10.282;2022-11-20T00:49:44;100770.19;;;8.64;nan
20942;BME280;10630;53.734;10.282;2022-11-20T00:52:11;100766.09;;;8.51;nan
20942;BME280;10630;53.734;10.282;2022-11-20T00:54:45;100765.78;;;8.73;nan
20942;BME280;10630;53.734;10.282;2022-11-20T00:57:15;100774.06;;;8.51;nan
20942;BME280;10630;53.734;10.282;2022-11-20T00:59:47;100772.53;;;8.67;nan
20942;BME280;10630;53.734;10.282;2022-11-20T01:02:17;100767.34;;;8.29;nan
20942;BME280;10630;53.734;10.282;2022-11-20T01:04:47;100774.06;;;8.05;nan
20942;BME280;10630;53.734;10.282;2022-11-20T01:07:14;100771.22;;;8.35;nan
20942;BME280;10630;53.734;10.282;2022-11-20T01:09:44;100763.91;;;8.47;nan
20942;BME280;10630;53.734;10.282;2022-11-20T01:12:16;100769.44;;;8.53;nan
20942;BME280;10630;53.734;10.282;2022-11-20T01:14:46;100764.31;;;8.42;nan
20942;BME280;10630;53.734;10.282;2022-11-20T01:17:16;100768.38;;;8.64;nan
20942;BME280;10630;53.734;10.282;2022-11-20T01:19:52;100754.81;;;8.49;nan
20942;BME280;10630;53.734;10.282;2022-11-20T01:22:23;100755.13;;;8.36;nan
20942;BME280;10630;53.734;10.282;2022-11-20T01:24:52;100755.53;;;8.23;nan
20942;BME280;10630;53.734;10.282;2022-11-20T01:27:23;100754.69;;;8.05;nan
20942;BME280;10630;53.734;10.282;2022-11-20T01:29:57;100749.63;;;8.30;nan
20942;BME280;10630;53.734;10.282;2022-11-20T01:32:26;100746.16;;;8.47;nan
20942;BME280;10630;53.734;10.282;2022-11-20T01:34:57;100747.19;;;8.36;nan
20942;BME280;10630;53.734;10.282;2022-11-20T01:37:41;100742.94;;;8.07;nan
20942;BME280;10630;53.734;10.282;2022-11-20T01:40:10;100744.38;;;7.74;nan
20942;BME280;10630;53.734;10.282;2022-11-20T01:42:44;100731.19;;;8.28;nan
20942;BME280;10630;53.734;10.282;2022-11-20T01:45:50;100731.41;;;7.99;nan
20942;BME280;10630;53.734;10.282;2022-11-20T01:48:22;100732.22;;;7.81;nan
20942;BME280;10630;53.734;10.282;2022-11-20T01:50:53;100726.56;;;7.94;nan
20942;BME280;10630;53.734;10.282;2022-11-20T01:53:21;100724.16;;;8.19;nan
20942;BME280;10630;53.734;10.282;2022-11-20T01:55:53;100720.06;;;8.24;nan
20942;BME280;10630;53.734;10.282;2022-11-20T01:58:22;100717.41;;;8.24;nan
20942;BME280;10630;53.734;10.282;2022-11-20T02:00:56;100717.56;;;8.41;nan
20942;BME280;10630;53.734;10.282;2022-11-20T02:03:23;100712.03;;;8.16;nan
20942;BME280;10630;53.734;10.282;2022-11-20T02:06:01;100712.88;;;8.17;nan
20942;BME280;10630;53.734;10.282;2022-11-20T02:08:37;100714.22;;;8.03;nan
20942;BME280;10630;53.734;10.282;2022-11-20T02:11:04;100711.28;;;8.42;nan
20942;BME280;10630;53.734;10.282;2022-11-20T02:13:31;100710.13;;;8.45;nan
20942;BME280;10630;53.734;10.282;2022-11-20T02:18:49;100704.31;;;8.59;nan
20942;BME280;10630;53.734;10.282;2022-11-20T02:24:04;100701.41;;;8.16;nan
20942;BME280;10630;53.734;10.282;2022-11-20T02:26:45;100699.00;;;8.23;nan
20942;BME280;10630;53.734;10.282;2022-11-20T02:29:14;100698.78;;;8.16;nan
20942;BME280;10630;53.734;10.282;2022-11-20T02:31:48;100694.16;;;8.36;nan
20942;BME280;10630;53.734;10.282;2022-11-20T02:34:18;100684.69;;;8.52;nan
20942;BME280;10630;53.734;10.282;2022-11-20T02:36:46;100683.94;;;8.60;nan
20942;BME280;10630;53.734;10.282;2022-11-20T02:39:20;100682.78;;;8.44;nan
20942;BME280;10630;53.734;10.282;2022-11-20T02:41:50;100690.75;;;8.62;nan
20942;BME280;10630;53.734;10.282;2022-11-20T02:44:19;100689.69;;;8.55;nan
20942;BME280;10630;53.734;10.282;2022-11-20T02:46:49;100685.22;;;8.55;nan
20942;BME280;10630;53.734;10.282;2022-11-20T02:49:22;100688.66;;;8.48;nan
20942;BME280;10630;53.734;10.282;2022-11-20T02:52:00;100692.81;;;8.50;nan
20942;BME280;10630;53.734;10.282;2022-11-20T02:54:31;100685.53;;;8.52;nan
20942;BME280;10630;53.734;10.282;2022-11-20T02:57:00;100686.13;;;8.46;nan
20942;BME280;10630;53.734;10.282;2022-11-20T02:59:30;100683.00;;;8.51;nan
20942;BME280;10630;53.734;10.282;2022-11-20T03:01:57;100682.50;;;8.47;nan
20942;BME280;10630;53.734;10.282;2022-11-20T03:04:30;100680.06;;;8.36;nan
20942;BME280;10630;53.734;10.282;2022-11-20T03:06:58;100680.97;;;7.90;nan
20942;BME280;10630;53.734;10.282;2022-11-20T03:09:31;100682.72;;;8.00;nan
20942;BME280;10630;53.734;10.282;2022-11-20T03:12:01;100678.41;;;8.35;nan
20942;BME280;10630;53.734;10.282;2022-11-20T03:14:28;100680.22;;;8.34;nan
20942;BME280;10630;53.734;10.282;2022-11-20T03:16:58;100677.41;;;8.36;nan
20942;BME280;10630;53.734;10.282;2022-11-20T03:19:28;100680.75;;;8.38;nan
20942;BME280;10630;53.734;10.282;2022-11-20T03:22:04;100681.59;;;8.20;nan
20942;BME280;10630;53.734;10.282;2022-11-20T03:24:37;100670.66;;;8.42;nan
20942;BME280;10630;53.734;10.282;2022-11-20T03:27:09;100670.50;;;8.43;nan
20942;BME280;10630;53.734;10.282;2022-11-20T03:29:36;100674.41;;;8.31;nan
20942;BME280;10630;53.734;10.282;2022-11-20T03:32:09;100674.94;;;8.52;nan
20942;BME280;10630;53.734;10.282;2022-11-20T03:34:39;100677.44;;;8.18;nan
20942;BME280;10630;53.734;10.282;2022-11-20T03:37:15;100663.53;;;8.42;nan
20942;BME280;10630;53.734;10.282;2022-11-20T03:39:45;100666.44;;;8.31;nan
20942;BME280;10630;53.734;10.282;2022-11-20T03:42:16;100663.63;;;8.32;nan
20942;BME280;10630;53.734;10.282;2022-11-20T03:45:04;100659.75;;;8.27;nan
20942;BME280;10630;53.734;10.282;2022-11-20T03:47:41;100665.97;;;8.17;nan
20942;BME280;10630;53.734;10.282;2022-11-20T03:50:09;100671.88;;;8.11;nan
20942;BME280;10630;53.734;10.282;2022-11-20T03:52:42;100665.59;;;7.94;nan
20942;BME280;10630;53.734;10.282;2022-11-20T03:55:12;100661.91;;;7.87;nan
20942;BME280;10630;53.734;10.282;2022-11-20T03:57:44;100661.34;;;8.19;nan
20942;BME280;10630;53.734;10.282;2022-11-20T04:00:11;100658.09;;;7.89;nan
20942;BME280;10630;53.734;10.282;2022-11-20T04:02:45;100656.75;;;8.21;nan
20942;BME280;10630;53.734;10.282;2022-11-20T04:05:17;100658.81;;;7.91;nan
20942;BME280;10630;53.734;10.282;2022-11-20T04:07:49;100660.91;;;7.88;nan
20942;BME280;10630;53.734;10.282;2022-11-20T04:10:22;100655.72;;;7.68;nan
20942;BME280;10630;53.734;10.282;2022-11-20T04:13:00;100657.22;;;7.99;nan
20942;BME280;10630;53.734;10.282;2022-11-20T04:15:27;100659.25;;;7.87;nan
20942;BME280;10630;53.734;10.282;2022-11-20T04:18:03;100653.13;;;8.04;nan
20942;BME280;10630;53.734;10.282;2022-11-20T04:20:30;100649.00;;;8.10;nan
20942;BME280;10630;53.734;10.282;2022-11-20T04:23:04;100642.97;;;8.18;nan
20942;BME280;10630;53.734;10.282;2022-11-20T04:25:36;100641.22;;;7.90;nan
20942;BME280;10630;53.734;10.282;2022-11-20T04:28:09;100642.03;;;8.09;nan
20942;BME280;10630;53.734;10.282;2022-11-20T04:30:44;100641.28;;;8.35;nan
20942;BME280;10630;53.734;10.282;2022-11-20T04:33:13;100635.84;;;7.82;nan
20942;BME280;10630;53.734;10.282;2022-11-20T04:35:44;100644.09;;;7.79;nan
20942;BME280;10630;53.734;10.282;2022-11-20T04:38:22;100643.34;;;7.69;nan
20942;BME280;10630;53.734;10.282;2022-11-20T04:40:55;100638.41;;;8.10;nan
20942;BME280;10630;53.734;10.282;2022-11-20T04:43:34;100637.09;;;8.32;nan
20942;BME280;10630;53.734;10.282;2022-11-20T04:46:02;100638.88;;;8.23;nan
20942;BME280;10630;53.734;10.282;2022-11-20T04:48:35;100640.25;;;7.91;nan
20942;BME280;10630;53.734;10.282;2022-11-20T04:51:04;100635.03;;;8.00;nan
20942;BME280;10630;53.734;10.282;2022-11-20T04:53:35;100633.47;;;7.79;nan
20942;BME280;10630;53.734;10.282;2022-11-20T04:56:05;100634.19;;;7.99;nan
20942;BME280;10630;53.734;10.282;2022-11-20T04:58:36;100629.94;;;7.88;nan
20942;BME280;10630;53.734;10.282;2022-11-20T05:01:10;100631.69;;;7.80;nan
20942;BME280;10630;53.734;10.282;2022-11-20T05:03:39;100627.00;;;8.10;nan
20942;BME280;10630;53.734;10.282;2022-11-20T05:06:12;100619.25;;;7.98;nan
20942;BME280;10630;53.734;10.282;2022-11-20T05:08:41;100615.25;;;8.12;nan
20942;BME280;10630;53.734;10.282;2022-11-20T05:11:17;100618.09;;;8.01;nan
20942;BME280;10630;53.734;10.282;2022-11-20T05:13:48;100618.72;;;7.58;nan
20942;BME280;10630;53.734;10.282;2022-11-20T05:16:17;100618.88;;;7.57;nan
20942;BME280;10630;53.734;10.282;2022-11-20T05:18:44;100613.13;;;7.98;nan
20942;BME280;10630;53.734;10.282;2022-11-20T05:21:14;100605.53;;;8.03;nan
20942;BME280;10630;53.734;10.282;2022-11-20T05:23:45;100611.47;;;7.97;nan
20942;BME280;10630;53.734;10.282;2022-11-20T05:26:24;100596.09;;;8.00;nan
20942;BME280;10630;53.734;10.282;2022-11-20T05:28:53;100602.66;;;8.14;nan
20942;BME280;10630;53.734;10.282;2022-11-20T05:31:23;100595.06;;;8.19;nan
20942;BME280;10630;53.734;10.282;2022-11-20T05:33:53;100592.28;;;8.03;nan
20942;BME280;10630;53.734;10.282;2022-11-20T05:36:27;100596.63;;;8.04;nan
20942;BME280;10630;53.734;10.282;2022-11-20T05:38:54;100589.78;;;8.19;nan
20942;BME280;10630;53.734;10.282;2022-11-20T05:41:27;100591.28;;;6.76;nan
20942;BME280;10630;53.734;10.282;2022-11-20T05:43:57;100589.31;;;6.78;nan
20942;BME280;10630;53.734;10.282;2022-11-20T05:46:29;100594.84;;;6.85;nan
20942;BME280;10630;53.734;10.282;2022-11-20T05:49:04;100585.41;;;7.10;nan
20942;BME280;10630;53.734;10.282;2022-11-20T05:51:34;100590.97;;;6.79;nan
20942;BME280;10630;53.734;10.282;2022-11-20T05:54:06;100585.16;;;7.31;nan
20942;BME280;10630;53.734;10.282;2022-11-20T05:56:36;100586.03;;;7.22;nan
20942;BME280;10630;53.734;10.282;2022-11-20T05:59:09;100582.75;;;7.38;nan
20942;BME280;10630;53.734;10.282;2022-11-20T06:01:38;100591.53;;;7.38;nan
20942;BME280;10630;53.734;10.282;2022-11-20T06:04:05;100593.72;;;7.43;nan
20942;BME280;10630;53.734;10.282;2022-11-20T06:06:38;100597.06;;;7.45;nan
20942;BME280;10630;53.734;10.282;2022-11-20T06:09:05;100591.06;;;7.97;nan
20942;BME280;10630;53.734;10.282;2022-11-20T06:11:34;100588.72;;;8.12;nan
20942;BME280;10630;53.734;10.282;2022-11-20T06:14:03;100591.31;;;8.04;nan
20942;BME280;10630;53.734;10.282;2022-11-20T06:16:36;100591.31;;;8.04;nan
20942;BME280;10630;53.734;10.282;2022-11-20T06:19:05;100592.38;;;8.11;nan
20942;BME280;10630;53.734;10.282;2022-11-20T06:21:35;100595.00;;;8.11;nan
20942;BME280;10630;53.734;10.282;2022-11-20T06:24:02;100596.75;;;8.20;nan
20942;BME280;10630;53.734;10.282;2022-11-20T06:26:34;100599.41;;;8.20;nan
20942;BME280;10630;53.734;10.282;2022-11-20T06:29:01;100593.44;;;7.82;nan
20942;BME280;10630;53.734;10.282;2022-11-20T06:31:33;100595.94;;;7.84;nan
20942;BME280;10630;53.734;10.282;2022-11-20T06:34:07;100597.31;;;7.70;nan
20942;BME280;10630;53.734;10.282;2022-11-20T06:36:37;100599.03;;;7.79;nan
20942;BME280;10630;53.734;10.282;2022-11-20T06:39:07;100599.63;;;8.09;nan
20942;BME280;10630;53.734;10.282;2022-11-20T06:41:38;100603.81;;;7.75;nan
20942;BME280;10630;53.734;10.282;2022-11-20T06:44:05;100603.16;;;7.91;nan
20942;BME280;10630;53.734;10.282;2022-11-20T06:46:34;100595.19;;;8.10;nan
20942;BME280;10630;53.734;10.282;2022-11-20T06:49:04;100588.63;;;8.22;nan
20942;BME280;10630;53.734;10.282;2022-11-20T06:51:33;100599.03;;;8.15;nan
20942;BME280;10630;53.734;10.282;2022-11-20T06:54:00;100587.06;;;8.11;nan
20942;BME280;10630;53.734;10.282;2022-11-20T06:56:29;100585.09;;;8.13;nan
20942;BME280;10630;53.734;10.282;2022-11-20T06:58:56;100584.13;;;8.14;nan
20942;BME280;10630;53.734;10.282;2022-11-20T07:01:29;100586.09;;;8.38;nan
20942;BME280;10630;53.734;10.282;2022-11-20T07:03:55;100582.09;;;8.08;nan
20942;BME280;10630;53.734;10.282;2022-11-20T07:06:22;100585.28;;;8.20;nan
20942;BME280;10630;53.734;10.282;2022-11-20T07:08:59;100588.69;;;8.30;nan
20942;BME280;10630;53.734;10.282;2022-11-20T07:11:34;100580.28;;;7.90;nan
20942;BME280;10630;53.734;10.282;2022-11-20T07:14:03;100573.63;;;8.31;nan
20942;BME280;10630;53.734;10.282;2022-11-20T07:16:32;100577.97;;;8.40;nan
20942;BME280;10630;53.734;10.282;2022-11-20T07:18:59;100579.66;;;7.97;nan
20942;BME280;10630;53.734;10.282;2022-11-20T07:21:26;100578.34;;;8.01;nan
20942;BME280;10630;53.734;10.282;2022-11-20T07:23:52;100578.75;;;8.06;nan
20942;BME280;10630;53.734;10.282;2022-11-20T07:26:22;100583.72;;;8.09;nan
20942;BME280;10630;53.734;10.282;2022-11-20T07:28:49;100586.25;;;8.37;nan
20942;BME280;10630;53.734;10.282;2022-11-20T07:31:23;100585.00;;;8.23;nan
20942;BME280;10630;53.734;10.282;2022-11-20T07:33:50;100588.81;;;8.02;nan
20942;BME280;10630;53.734;10.282;2022-11-20T07:36:20;100582.41;;;8.31;nan
20942;BME280;10630;53.734;10.282;2022-11-20T07:38:47;100585.91;;;8.14;nan
20942;BME280;10630;53.734;10.282;2022-11-20T07:41:18;100581.63;;;7.95;nan
20942;BME280;10630;53.734;10.282;2022-11-20T07:43:47;100580.50;;;7.79;nan
20942;BME280;10630;53.734;10.282;2022-11-20T07:46:15;100586.84;;;8.22;nan
20942;BME280;10630;53.734;10.282;2022-11-20T07:48:41;100587.19;;;8.28;nan
20942;BME280;10630;53.734;10.282;2022-11-20T07:51:11;100589.31;;;8.24;nan
20942;BME280;10630;53.734;10.282;2022-11-20T07:53:41;100586.16;;;8.20;nan
20942;BME280;10630;53.734;10.282;2022-11-20T07:56:08;100588.09;;;8.18;nan
20942;BME280;10630;53.734;10.282;2022-11-20T07:58:39;100585.78;;;8.15;nan
20942;BME280;10630;53.734;10.282;2022-11-20T08:01:06;100588.34;;;8.25;nan
20942;BME280;10630;53.734;10.282;2022-11-20T08:03:34;100582.81;;;8.18;nan
20942;BME280;10630;53.734;10.282;2022-11-20T08:06:01;100582.13;;;8.16;nan
20942;BME280;10630;53.734;10.282;2022-11-20T08:08:35;100587.41;;;8.34;nan
20942;BME280;10630;53.734;10.282;2022-11-20T08:11:08;100585.00;;;8.23;nan
20942;BME280;10630;53.734;10.282;2022-11-20T08:13:53;100581.75;;;8.11;nan
20942;BME280;10630;53.734;10.282;2022-11-20T08:16:41;100575.88;;;7.81;nan
20942;BME280;10630;53.734;10.282;2022-11-20T08:19:09;100584.22;;;7.68;nan
20942;BME280;10630;53.734;10.282;2022-11-20T08:21:40;100577.69;;;7.99;nan
20942;BME280;10630;53.734;10.282;2022-11-20T08:24:13;100586.88;;;8.31;nan
20942;BME280;10630;53.734;10.282;2022-11-20T08:26:41;100585.56;;;8.08;nan
20942;BME280;10630;53.734;10.282;2022-11-20T08:29:12;100583.13;;;8.15;nan
20942;BME280;10630;53.734;10.282;2022-11-20T08:31:40;100581.72;;;8.29;nan
20942;BME280;10630;53.734;10.282;2022-11-20T08:34:12;100575.31;;;8.14;nan
20942;BME280;10630;53.734;10.282;2022-11-20T08:36:44;100569.50;;;8.10;nan
20942;BME280;10630;53.734;10.282;2022-11-20T08:39:14;100570.50;;;8.35;nan
20942;BME280;10630;53.734;10.282;2022-11-20T08:41:44;100567.75;;;8.45;nan
20942;BME280;10630;53.734;10.282;2022-11-20T08:44:15;100578.03;;;8.22;nan
20942;BME280;10630;53.734;10.282;2022-11-20T08:46:48;100584.19;;;8.22;nan
20942;BME280;10630;53.734;10.282;2022-11-20T08:49:23;100580.72;;;8.48;nan
20942;BME280;10630;53.734;10.282;2022-11-20T08:51:50;100579.44;;;7.54;nan
20942;BME280;10630;53.734;10.282;2022-11-20T08:54:23;100571.22;;;8.19;nan
20942;BME280;10630;53.734;10.282;2022-11-20T08:56:53;100579.88;;;8.03;nan
20942;BME280;10630;53.734;10.282;2022-11-20T08:59:23;100580.41;;;7.71;nan
20942;BME280;10630;53.734;10.282;2022-11-20T09:02:18;100579.13;;;7.93;nan
20942;BME280;10630;53.734;10.282;2022-11-20T09:04:50;100593.91;;;7.59;nan
20942;BME280;10630;53.734;10.282;2022-11-20T09:07:23;100591.63;;;7.65;nan
20942;BME280;10630;53.734;10.282;2022-11-20T09:09:59;100599.34;;;7.58;nan
20942;BME280;10630;53.734;10.282;2022-11-20T09:12:48;100603.94;;;7.38;nan
20942;BME280;10630;53.734;10.282;2022-11-20T09:15:18;100593.28;;;6.92;nan
20942;BME280;10630;53.734;10.282;2022-11-20T09:17:55;100588.69;;;7.86;nan
20942;BME280;10630;53.734;10.282;2022-11-20T09:20:28;100591.16;;;7.51;nan
20942;BME280;10630;53.734;10.282;2022-11-20T09:22:58;100591.78;;;7.63;nan
20942;BME280;10630;53.734;10.282;2022-11-20T09:25:28;100597.47;;;7.22;nan
20942;BME280;10630;53.734;10.282;2022-11-20T09:27:58;100604.31;;;6.87;nan
20942;BME280;10630;53.734;10.282;2022-11-20T09:30:28;100606.78;;;6.51;nan
20942;BME280;10630;53.734;10.282;2022-11-20T09:33:01;100598.63;;;7.10;nan
20942;BME280;10630;53.734;10.282;2022-11-20T09:35:33;100590.13;;;7.62;nan
20942;BME280;10630;53.734;10.282;2022-11-20T09:38:06;100603.81;;;7.11;nan
20942;BME280;10630;53.734;10.282;2022-11-20T09:40:34;100599.59;;;7.09;nan
20942;BME280;10630;53.734;10.282;2022-11-20T09:45:42;100598.41;;;6.65;nan
20942;BME280;10630;53.734;10.282;2022-11-20T09:53:56;100588.03;;;6.34;nan
20942;BME280;10630;53.734;10.282;2022-11-20T09:56:30;100599.31;;;6.37;nan
20942;BME280;10630;53.734;10.282;2022-11-20T09:59:02;100597.34;;;6.86;nan
20942;BME280;10630;53.734;10.282;2022-11-20T10:01:34;100601.78;;;7.23;nan
20942;BME280;10630;53.734;10.282;2022-11-20T10:04:06;100593.63;;;6.79;nan
20942;BME280;10630;53.734;10.282;2022-11-20T10:06:41;100593.00;;;6.57;nan
20942;BME280;10630;53.734;10.282;2022-11-20T10:25:16;100589.81;;;6.91;nan
20942;BME280;10630;53.734;10.282;2022-11-20T10:30:16;100571.28;;;7.65;nan
20942;BME280;10630;53.734;10.282;2022-11-20T10:32:50;100573.00;;;7.92;nan
20942;BME280;10630;53.734;10.282;2022-11-20T10:35:26;100577.38;;;7.29;nan
20942;BME280;10630;53.734;10.282;2022-11-20T10:38:05;100580.59;;;6.95;nan
20942;BME280;10630;53.734;10.282;2022-11-20T10:40:38;100581.34;;;7.62;nan
20942;BME280;10630;53.734;10.282;2022-11-20T10:43:24;100577.56;;;7.64;nan
20942;BME280;10630;53.734;10.282;2022-11-20T10:46:05;100578.22;;;7.02;nan
20942;BME280;10630;53.734;10.282;2022-11-20T10:48:38;100570.44;;;7.65;nan
20942;BME280;10630;53.734;10.282;2022-11-20T10:51:20;100573.25;;;7.63;nan
20942;BME280;10630;53.734;10.282;2022-11-20T10:56:20;100568.16;;;8.06;nan
20942;BME280;10630;53.734;10.282;2022-11-20T11:01:42;100572.25;;;7.82;nan
20942;BME280;10630;53.734;10.282;2022-11-20T11:04:18;100576.16;;;7.42;nan
20942;BME280;10630;53.734;10.282;2022-11-20T11:06:47;100571.28;;;7.19;nan
20942;BME280;10630;53.734;10.282;2022-11-20T11:09:16;100565.78;;;7.03;nan
20942;BME280;10630;53.734;10.282;2022-11-20T11:11:47;100583.25;;;7.23;nan
20942;BME280;10630;53.734;10.282;2022-11-20T11:14:20;100569.13;;;6.77;nan
20942;BME280;10630;53.734;10.282;2022-11-20T11:16:55;100563.19;;;6.65;nan
20942;BME280;10630;53.734;10.282;2022-11-20T11:19:23;100554.06;;;7.33;nan
20942;BME280;10630;53.734;10.282;2022-11-20T11:21:52;100550.91;;;7.29;nan
20942;BME280;10630;53.734;10.282;2022-11-20T11:24:25;100537.06;;;8.16;nan
20942;BME280;10630;53.734;10.282;2022-11-20T11:27:12;100543.44;;;8.23;nan
20942;BME280;10630;53.734;10.282;2022-11-20T11:32:45;100548.88;;;7.59;nan
20942;BME280;10630;53.734;10.282;2022-11-20T11:35:23;100547.59;;;8.26;nan
20942;BME280;10630;53.734;10.282;2022-11-20T11:38:22;100551.34;;;7.79;nan
20942;BME280;10630;53.734;10.282;2022-11-20T11:40:52;100538.19;;;8.40;nan
20942;BME280;10630;53.734;10.282;2022-11-20T11:43:25;100539.31;;;8.55;nan
20942;BME280;10630;53.734;10.282;2022-11-20T11:54:19;100527.66;;;7.78;nan
20942;BME280;10630;53.734;10.282;2022-11-20T11:56:50;100521.88;;;8.00;nan
20942;BME280;10630;53.734;10.282;2022-11-20T11:59:39;100522.91;;;8.34;nan
20942;BME280;10630;53.734;10.282;2022-11-20T12:10:14;100523.13;;;8.67;nan
20942;BME280;10630;53.734;10.282;2022-11-20T12:12:53;100521.66;;;7.93;nan
20942;BME280;10630;53.734;10.282;2022-11-20T12:15:23;100524.41;;;8.63;nan
20942;BME280;10630;53.734;10.282;2022-11-20T12:17:55;100528.13;;;8.17;nan
20942;BME280;10630;53.734;10.282;2022-11-20T12:20:23;100521.66;;;8.20;nan
20942;BME280;10630;53.734;10.282;2022-11-20T12:23:06;100526.22;;;7.83;nan
20942;BME280;10630;53.734;10.282;2022-11-20T12:25:39;100515.78;;;8.52;nan
20942;BME280;10630;53.734;10.282;2022-11-20T12:56:17;100494.63;;;8.16;nan
20942;BME280;10630;53.734;10.282;2022-11-20T12:59:10;100498.69;;;8.29;nan
20942;BME280;10630;53.734;10.282;2022-11-20T13:04:19;100514.00;;;7.46;nan
20942;BME280;10630;53.734;10.282;2022-11-20T13:06:50;100508.47;;;8.02;nan
20942;BME280;10630;53.734;10.282;2022-11-20T13:09:18;100506.31;;;8.32;nan
20942;BME280;10630;53.734;10.282;2022-11-20T13:19:19;100493.47;;;9.64;nan
20942;BME280;10630;53.734;10.282;2022-11-20T13:21:47;100501.63;;;8.86;nan
20942;BME280;10630;53.734;10.282;2022-11-20T13:24:21;100492.81;;;8.78;nan
20942;BME280;10630;53.734;10.282;2022-11-20T13:27:26;100490.88;;;7.74;nan
20942;BME280;10630;53.734;10.282;2022-11-20T13:29:47;100490.00;;;7.48;nan
20942;BME280;10630;53.734;10.282;2022-11-20T13:32:26;100488.25;;;7.38;nan
20942;BME280;10630;53.734;10.282;2022-11-20T13:34:59;100488.63;;;7.25;nan
20942;BME280;10630;53.734;10.282;2022-11-20T13:40:13;100480.78;;;7.78;nan
20942;BME280;10630;53.734;10.282;2022-11-20T13:42:51;100487.88;;;7.96;nan
20942;BME280;10630;53.734;10.282;2022-11-20T13:45:24;100473.72;;;7.60;nan
20942;BME280;10630;53.734;10.282;2022-11-20T13:47:51;100476.69;;;7.21;nan
20942;BME280;10630;53.734;10.282;2022-11-20T13:50:19;100469.22;;;7.79;nan
20942;BME280;10630;53.734;10.282;2022-11-20T14:00:27;100465.22;;;7.75;nan
20942;BME280;10630;53.734;10.282;2022-11-20T14:05:34;100463.97;;;8.83;nan
20942;BME280;10630;53.734;10.282;2022-11-20T14:08:03;100465.06;;;8.03;nan
20942;BME280;10630;53.734;10.282;2022-11-20T14:10:32;100465.31;;;7.47;nan
20942;BME280;10630;53.734;10.282;2022-11-20T14:13:20;100460.72;;;7.13;nan
20942;BME280;10630;53.734;10.282;2022-11-20T14:15:47;100457.97;;;7.77;nan
20942;BME280;10630;53.734;10.282;2022-11-20T14:18:15;100458.63;;;8.40;nan
20942;BME280;10630;53.734;10.282;2022-11-20T14:20:42;100457.31;;;8.36;nan
20942;BME280;10630;53.734;10.282;2022-11-20T14:23:10;100455.84;;;8.76;nan
20942;BME280;10630;53.734;10.282;2022-11-20T14:25:37;100454.00;;;8.77;nan
20942;BME280;10630;53.734;10.282;2022-11-20T14:28:11;100448.44;;;9.13;nan
20942;BME280;10630;53.734;10.282;2022-11-20T14:30:46;100454.56;;;8.19;nan
20942;BME280;10630;53.734;10.282;2022-11-20T14:33:13;100451.59;;;8.49;nan
20942;BME280;10630;53.734;10.282;2022-11-20T14:35:47;100444.78;;;7.67;nan
20942;BME280;10630;53.734;10.282;2022-11-20T14:38:16;100441.22;;;7.76;nan
20942;BME280;10630;53.734;10.282;2022-11-20T14:40:43;100445.03;;;8.35;nan
20942;BME280;10630;53.734;10.282;2022-11-20T14:43:26;100436.06;;;8.62;nan
20942;BME280;10630;53.734;10.282;2022-11-20T14:45:58;100437.19;;;8.51;nan
20942;BME280;10630;53.734;10.282;2022-11-20T14:48:28;100434.00;;;9.07;nan
20942;BME280;10630;53.734;10.282;2022-11-20T14:50:57;100438.88;;;8.61;nan
20942;BME280;10630;53.734;10.282;2022-11-20T14:53:24;100439.16;;;7.88;nan
20942;BME280;10630;53.734;10.282;2022-11-20T14:55:55;100445.34;;;8.32;nan
20942;BME280;10630;53.734;10.282;2022-11-20T14:58:25;100445.81;;;8.53;nan
20942;BME280;10630;53.734;10.282;2022-11-20T15:00:57;100438.16;;;8.50;nan
20942;BME280;10630;53.734;10.282;2022-11-20T15:03:30;100437.56;;;8.65;nan
20942;BME280;10630;53.734;10.282;2022-11-20T15:05:57;100436.63;;;8.91;nan
20942;BME280;10630;53.734;10.282;2022-11-20T15:08:24;100437.81;;;8.96;nan
20942;BME280;10630;53.734;10.282;2022-11-20T15:10:51;100434.81;;;8.91;nan
20942;BME280;10630;53.734;10.282;2022-11-20T15:13:37;100429.69;;;8.98;nan
20942;BME280;10630;53.734;10.282;2022-11-20T15:16:08;100432.63;;;8.86;nan
20942;BME280;10630;53.734;10.282;2022-11-20T15:18:40;100433.69;;;8.24;nan
20942;BME280;10630;53.734;10.282;2022-11-20T15:21:11;100432.56;;;8.53;nan
20942;BME280;10630;53.734;10.282;2022-11-20T15:23:38;100427.34;;;8.95;nan